Latest Weather Observations for Tibooburra Airport

IDN60801

Issued at 12:35 pm EST Tuesday 2 September 2014 (issued every 30 minutes, with the page automatically refreshed every 10 minutes)

About weather observations | Map of weather stations | Latest weather observations for NSW | Other Formats
Station Details ID: 046126 Name: TIBOOBURRA AIRPORT Lat: -29.44 Lon: 142.06 Height: 176.4 m
Data from the previous 72 hours. | See also: Recent months for locations in New South Wales
Date/Time
EST
Temp
°C
App
Temp
°C
Dew
Point
Rel
Hum
%
Delta-T
°C
Wind Press
QNH
hPa
Press
MSL
hPa
Rain
since 9 am
mm
Dir
 
Spd
km/h
Gust
km/h
Spd
kts
Gust
kts
02/12:30pm 15.0 6.9 0.8 38 6.1 S 33 44 18 24 1022.4 - 0.0
02/12:00pm 15.0 6.6 1.5 40 5.9 SSW 35 48 19 26 1022.5 1022.0 0.0
02/11:30am 14.4 6.1 2.3 44 5.4 S 35 46 19 25 1022.7 - 0.0
02/11:00am 13.8 6.2 2.7 47 4.9 S 32 46 17 25 1023.4 1023.0 0.0
02/10:30am 13.1 5.3 2.9 50 4.6 S 33 43 18 23 1023.5 - 0.0
02/10:00am 12.3 3.7 2.7 52 4.2 SSW 37 48 20 26 1023.3 1022.9 0.0
02/09:30am 12.0 3.1 3.3 55 3.9 SSW 39 50 21 27 1023.4 - 0.0
02/09:00am 11.0 3.4 3.8 61 3.2 SSW 33 48 18 26 1023.2 1022.8 0.0
02/08:30am 10.4 2.0 3.9 64 2.9 SSW 37 50 20 27 1022.9 - 0.0
02/08:00am 9.8 1.8 3.8 66 2.6 SW 35 48 19 26 1022.3 1021.8 0.0
02/07:30am 9.2 2.2 4.0 70 2.3 SW 30 37 16 20 1021.9 - 0.0
02/07:00am 9.0 1.6 4.0 71 2.2 SW 32 39 17 21 1021.3 1020.9 0.0
02/06:30am 9.2 1.9 4.6 73 2.1 SW 32 41 17 22 1020.8 - 0.0
02/06:00am 9.5 3.5 5.1 74 2.0 SW 26 33 14 18 1020.5 1020.1 0.0
02/05:30am 10.0 3.8 6.0 76 1.9 SSW 28 35 15 19 1020.1 - 0.0
02/05:00am 10.3 4.2 6.6 78 1.7 SSW 28 37 15 20 1019.8 1019.4 0.0
02/04:30am 10.6 5.5 7.7 82 1.4 SW 24 32 13 17 1019.5 - 0.0
02/04:00am 10.9 5.5 8.1 83 1.4 SW 26 33 14 18 1019.2 1018.8 0.0
02/03:30am 11.3 6.9 9.0 86 1.2 SW 22 28 12 15 1019.0 - 0.0
02/03:00am 11.6 7.6 9.0 84 1.3 SW 20 24 11 13 1018.8 1018.4 0.0
02/02:30am 12.1 7.7 8.8 80 1.7 SW 22 28 12 15 1018.9 - 0.0
02/02:00am 12.6 7.9 9.1 79 1.8 SW 24 33 13 18 1018.6 1018.2 0.0
02/01:30am 12.8 7.4 9.6 81 1.6 SW 28 37 15 20 1018.4 - 0.0
02/01:00am 13.1 7.3 9.5 79 1.8 SW 30 41 16 22 1018.3 1017.9 0.0
02/12:30am 13.6 7.8 9.3 75 2.2 SW 30 41 16 22 1018.2 - 0.0
02/12:00am 14.2 7.3 9.0 71 2.7 SW 35 43 19 23 1018.1 1017.7 0.0
 
Date/Time
EST
Temp
°C
App
Temp
°C
Dew
Point
Rel
Hum
%
Delta-T
°C
Wind Press
QNH
hPa
Press
MSL
hPa
Rain
since 9 am
mm
Dir
 
Spd
km/h
Gust
km/h
Spd
kts
Gust
kts
01/11:30pm 14.9 7.7 9.1 68 3.0 SW 37 50 20 27 1018.0 - 0.0
01/11:00pm 15.0 8.5 9.1 68 3.0 SW 33 39 18 21 1017.4 1016.9 0.0
01/10:30pm 15.3 8.0 8.8 65 3.3 SSW 37 46 20 25 1016.8 - 0.0
01/10:00pm 16.0 8.7 8.7 62 3.8 SW 37 50 20 27 1016.7 1016.2 0.0
01/09:30pm 16.7 8.6 8.7 59 4.1 SSW 41 54 22 29 1015.9 - 0.0
01/09:14pm 18.2 11.2 6.7 47 5.8 SSW 33 54 18 29 1015.7 - 0.0
01/09:00pm 18.8 12.3 4.6 39 6.9 SSW 28 39 15 21 1015.6 1015.2 0.0
01/08:30pm 19.0 13.1 4.0 37 7.2 SSW 24 32 13 17 1014.9 - 0.0
01/08:00pm 19.3 13.5 4.3 37 7.2 SSW 24 30 13 16 1014.4 1014.0 0.0
01/07:30pm 19.5 12.5 4.0 36 7.5 SSW 30 39 16 21 1014.3 - 0.0
01/07:00pm 20.0 12.5 1.4 29 8.5 SSW 30 39 16 21 1014.0 1013.6 0.0
01/06:30pm 21.0 12.1 -2.1 21 10.0 SSW 35 46 19 25 1013.4 - 0.0
01/06:00pm 23.1 13.9 -4.1 16 11.5 SW 35 46 19 25 1012.8 1012.3 0.0
01/05:30pm 25.4 17.1 -5.0 13 12.9 WSW 30 39 16 21 1012.1 - 0.0
01/05:00pm 26.5 17.6 -5.2 12 13.5 W 33 41 18 22 1011.8 1011.3 0.0
01/04:30pm 26.8 18.5 -4.9 12 13.6 WNW 30 41 16 22 1011.6 - 0.0
01/04:00pm 26.7 18.0 -5.0 12 13.6 WNW 32 39 17 21 1011.9 1011.4 0.0
01/03:30pm 26.6 17.9 -5.1 12 13.6 WNW 32 41 17 22 1012.2 - 0.0
01/03:00pm 26.4 17.7 -5.3 12 13.5 WNW 32 46 17 25 1012.3 1011.8 0.0
01/02:30pm 26.7 18.8 -5.0 12 13.6 WNW 28 39 15 21 1012.7 - 0.0
01/02:00pm 26.6 18.8 -4.0 13 13.4 NW 28 37 15 20 1012.9 1012.5 0.0
01/01:30pm 26.5 18.3 -4.1 13 13.3 NW 30 39 16 21 1013.6 - 0.0
01/01:00pm 26.7 19.6 -4.0 13 13.4 NW 24 35 13 19 1013.8 1013.4 0.0
01/12:30pm 26.3 18.6 -3.3 14 13.1 NW 28 43 15 23 1014.5 - 0.0
01/12:00pm 25.6 17.9 -2.9 15 12.6 NNW 28 37 15 20 1015.0 1014.6 0.0
01/11:30am 25.3 17.2 -3.2 15 12.5 NNW 30 41 16 22 1015.2 - 0.0
01/11:00am 25.2 16.7 -3.2 15 12.4 N 32 43 17 23 1015.5 1015.1 0.0
01/10:30am 24.3 16.7 -2.3 17 11.8 N 28 37 15 20 1015.8 - 0.0
01/10:00am 23.1 17.2 -1.1 20 10.8 N 20 26 11 14 1016.0 1015.6 0.0
01/09:30am 20.3 14.4 -0.9 24 9.3 N 20 28 11 15 1016.1 - 0.0
01/09:00am 18.8 13.5 -0.6 27 8.4 N 17 24 9 13 1016.1 1016.0 0.0
01/08:30am 16.9 11.5 -1.2 29 7.7 NNW 17 24 9 13 1015.8 - 0.0
01/08:00am 14.8 9.4 -1.3 33 6.7 N 17 20 9 11 1015.8 1015.7 0.0
01/07:30am 14.3 9.2 -1.7 33 6.5 N 15 19 8 10 1015.6 - 0.0
01/07:00am 13.7 8.2 -1.9 34 6.3 N 17 20 9 11 1015.2 1015.1 0.0
01/06:30am 13.4 8.3 -2.1 34 6.2 N 15 17 8 9 1015.2 - 0.0
01/06:00am 12.8 7.3 -1.9 36 5.9 N 17 19 9 10 1014.7 1014.6 0.0
01/05:30am 12.7 7.6 -1.6 37 5.8 N 15 19 8 10 1014.6 - 0.0
01/05:00am 12.4 7.3 -1.9 37 5.7 N 15 17 8 9 1014.5 1014.4 0.0
01/04:30am 13.4 8.3 -1.7 35 6.1 N 15 19 8 10 1015.0 - 0.0
01/04:00am 13.8 8.3 -2.2 33 6.4 N 17 19 9 10 1014.8 1014.7 0.0
01/03:30am 14.0 8.5 -2.0 33 6.5 N 17 19 9 10 1014.9 - 0.0
01/03:00am 14.4 9.3 -2.1 32 6.7 N 15 17 8 9 1015.0 1014.9 0.0
01/02:30am 14.7 9.2 -1.8 32 6.7 N 17 19 9 10 1015.1 - 0.0
01/02:00am 14.1 8.6 -1.9 33 6.5 N 17 19 9 10 1015.6 1015.5 0.0
01/01:30am 14.5 9.0 -2.0 32 6.7 N 17 19 9 10 1015.6 - 0.0
01/01:00am 15.0 9.6 -1.5 32 6.8 N 17 19 9 10 1015.7 1015.6 0.0
01/12:30am 14.8 9.4 -1.7 32 6.8 N 17 17 9 9 1016.0 - 0.0
01/12:00am 15.3 10.2 -2.2 30 7.1 N 15 17 8 9 1016.3 1016.1 0.0
 
Date/Time
EST
Temp
°C
App
Temp
°C
Dew
Point
Rel
Hum
%
Delta-T
°C
Wind Press
QNH
hPa
Press
MSL
hPa
Rain
since 9 am
mm
Dir
 
Spd
km/h
Gust
km/h
Spd
kts
Gust
kts
31/11:30pm 15.9 10.8 -2.1 29 7.4 N 15 17 8 9 1016.1 - 0.0
31/11:00pm 16.0 10.5 -2.0 29 7.4 N 17 19 9 10 1016.5 1016.3 0.0
31/10:30pm 16.2 11.1 -2.3 28 7.6 NNE 15 17 8 9 1016.7 - 0.0
31/10:00pm 17.7 12.5 -2.6 25 8.4 N 15 15 8 8 1016.8 1016.6 0.0
31/09:30pm 18.4 13.2 -2.5 24 8.7 NNW 15 17 8 9 1016.9 - 0.0
31/09:00pm 19.2 14.0 -2.4 23 9.1 NNW 15 17 8 9 1017.0 1016.9 0.0
31/08:30pm 19.0 13.9 -2.0 24 8.9 NNW 15 17 8 9 1017.0 - 0.0
31/08:00pm 18.4 14.0 -2.5 24 8.7 NNW 11 13 6 7 1016.8 1016.6 0.0
31/07:30pm 20.4 16.1 -2.0 22 9.6 N 11 11 6 6 1016.7 - 0.0
31/07:00pm 20.6 16.3 -1.8 22 9.7 NNW 11 13 6 7 1016.6 1016.4 0.0
31/06:30pm 21.4 17.4 -2.5 20 10.3 NNW 9 13 5 7 1016.4 - 0.0
31/06:00pm 23.4 18.9 -3.0 17 11.4 NW 11 17 6 9 1016.1 1016.0 0.0
31/05:30pm 24.1 19.2 -3.3 16 11.9 NW 13 19 7 10 1016.0 - 0.0
31/05:00pm 24.6 19.8 -2.9 16 12.0 N 13 22 7 12 1015.7 1015.6 0.0
31/04:30pm 24.6 20.1 -2.9 16 12.0 N 11 17 6 9 1015.8 - 0.0
31/04:00pm 24.7 19.5 -2.8 16 12.1 NNW 15 28 8 15 1016.0 1015.9 0.0
31/03:30pm 24.8 20.5 -1.9 17 11.9 NW 11 19 6 10 1016.4 - 0.0
31/03:00pm 25.1 19.7 -1.6 17 12.0 WNW 17 22 9 12 1016.8 1016.6 0.0
31/02:30pm 24.7 19.6 -2.0 17 11.9 NNW 15 26 8 14 1017.3 - 0.0
31/02:00pm 24.4 20.6 -0.7 19 11.4 NNW 9 19 5 10 1017.7 1017.6 0.0
31/01:30pm 24.0 20.2 -1.0 19 11.3 N 9 20 5 11 1018.2 - 0.0
31/01:00pm 23.6 18.6 -1.3 19 11.1 N 15 24 8 13 1018.4 1018.3 0.0
31/12:30pm 23.6 17.7 -0.6 20 11.0 N 20 28 11 15 1019.0 - 0.0
31/12:00pm 23.0 18.0 -1.1 20 10.8 NNW 15 26 8 14 1019.6 1019.5 0.0
31/11:30am 22.2 17.3 -0.5 22 10.2 NNW 15 28 8 15 1020.0 - 0.0
31/11:00am 22.1 17.3 0.0 23 10.0 NNW 15 28 8 15 1020.4 1020.3 0.0
31/10:30am 21.7 16.5 0.3 24 9.7 N 17 22 9 12 1020.8 - 0.0
31/10:00am 20.7 15.7 1.1 27 8.9 N 17 20 9 11 1021.0 1020.9 0.0
31/09:30am 19.0 13.9 0.6 29 8.2 N 17 22 9 12 1021.1 - 0.0
31/09:00am 17.5 12.8 0.6 32 7.4 N 15 19 8 10 1021.1 1021.0 0.0
31/08:30am 16.3 11.9 0.4 34 6.9 N 13 19 7 10 1020.8 - 0.0
31/08:00am 14.8 12.6 1.3 40 5.9 N 2 6 1 3 1020.7 1020.6 0.0
31/07:30am 13.4 10.1 0.1 40 5.6 N 7 9 4 5 1020.6 - 0.0
31/07:00am 13.1 9.4 0.2 41 5.4 N 9 11 5 6 1020.4 1020.3 0.0
31/06:30am 11.2 8.1 0.0 46 4.6 NW 6 6 3 3 1020.2 - 0.0
31/06:00am 10.9 7.5 -0.9 44 4.7 N 7 11 4 6 1020.0 1019.9 0.0
31/05:30am 12.1 8.0 -0.4 42 5.1 NNE 11 11 6 6 1019.7 - 0.0
31/05:00am 14.0 10.2 -0.4 37 6.0 NE 9 11 5 6 1019.5 1019.4 0.0
31/04:30am 14.1 10.3 -0.4 37 6.1 ENE 9 11 5 6 1019.6 - 0.0
31/04:00am 11.1 9.1 -0.1 46 4.6 CALM 0 0 0 0 1019.7 1019.6 0.0
31/03:30am 11.4 7.4 0.5 47 4.5 ESE 11 13 6 7 1019.7 - 0.0
31/03:00am 11.8 9.9 0.3 45 4.8 CALM 0 19 0 10 1019.7 1019.6 0.0
31/02:30am 11.9 10.0 0.7 46 4.7 CALM 0 0 0 0 1019.9 - 0.0
31/02:00am 12.3 10.3 0.1 43 5.1 CALM 0 0 0 0 1020.1 1020.0 0.0
31/01:30am 16.4 12.2 -0.8 31 7.3 NNE 11 13 6 7 1020.3 - 0.0
31/01:00am 16.7 12.9 -0.5 31 7.3 NNE 9 11 5 6 1020.4 1020.3 0.0
31/12:30am 15.5 11.4 -0.3 34 6.7 NNE 11 13 6 7 1020.5 - 0.0
31/12:00am 15.5 11.8 -0.3 34 6.7 NE 9 11 5 6 1020.9 1020.8 0.0
 
Date/Time
EST
Temp
°C
App
Temp
°C
Dew
Point
Rel
Hum
%
Delta-T
°C
Wind Press
QNH
hPa
Press
MSL
hPa
Rain
since 9 am
mm
Dir
 
Spd
km/h
Gust
km/h
Spd
kts
Gust
kts
30/11:30pm 15.2 11.1 -0.5 34 6.6 ENE 11 13 6 7 1021.0 - 0.0
30/11:00pm 15.5 11.8 0.1 35 6.6 E 9 11 5 6 1021.3 1021.2 0.0
30/10:30pm 15.4 11.7 0.0 35 6.6 ESE 9 11 5 6 1021.4 - 0.0
30/10:00pm 15.2 11.5 -0.1 35 6.5 ESE 9 9 5 5 1021.6 1021.5 0.0
30/09:30pm 15.4 11.7 0.0 35 6.6 ESE 9 15 5 8 1021.7 - 0.0
30/09:00pm 17.1 13.0 -0.1 31 7.4 E 11 15 6 8 1021.5 1021.4 0.0
30/08:30pm 17.5 14.1 -0.7 29 7.8 ENE 7 9 4 5 1021.4 - 0.0
30/08:00pm 18.1 14.3 -0.7 28 8.1 ENE 9 11 5 6 1021.3 1021.2 0.0
30/07:30pm 18.5 14.8 -0.3 28 8.2 E 9 9 5 5 1021.0 - 0.0
30/07:00pm 19.2 15.9 -0.2 27 8.5 ENE 7 9 4 5 1020.8 1020.7 0.0
30/06:30pm 20.0 16.3 -0.1 26 8.9 E 9 9 5 5 1020.5 - 0.0
30/06:00pm 21.9 18.5 -0.8 22 10.1 E 7 9 4 5 1020.4 1020.3 0.0
30/05:30pm 22.6 18.4 -0.8 21 10.5 E 11 15 6 8 1020.4 - 0.0
30/05:00pm 23.0 20.1 -1.1 20 10.7 SE 4 7 2 4 1020.3 1020.2 0.0
30/04:30pm 23.4 20.4 -1.5 19 11.1 NNE 4 13 2 7 1020.4 - 0.0
30/04:00pm 23.1 19.7 -1.8 19 11.0 NNE 6 11 3 6 1020.4 1020.3 0.0
30/03:30pm 23.5 20.1 -0.7 20 11.0 S 7 11 4 6 1020.6 - 0.0
30/03:00pm 23.0 18.9 -0.5 21 10.6 SE 11 20 6 11 1020.9 1020.8 0.0
30/02:30pm 23.3 20.0 -0.9 20 10.9 N 6 13 3 7 1021.3 - 0.0
30/02:00pm 22.8 19.1 0.0 22 10.4 ESE 9 19 5 10 1021.8 1021.8 0.0
30/01:30pm 22.8 18.1 0.6 23 10.2 ENE 15 24 8 13 1022.3 - 0.0
30/01:00pm 22.3 19.1 0.8 24 9.9 ENE 7 19 4 10 1022.8 1022.7 0.0

Other Formats:

Comma delimited format used in spreadsheet applications
http://www.bom.gov.au/fwo/IDN60801/IDN60801.95485.axf

JavaScript Object Notation format (JSON) in row-major order
http://www.bom.gov.au/fwo/IDN60801/IDN60801.95485.json